Time;durP1;ratioP1;P1;durP2;ratioP2;P2;SDS_P1;SDS_P2;PMS_P1;PMS_P2;Temp;Humidity;BMP_temperature;BMP_pressure;BME280_temperature;BME280_humidity;BME280_pressure;Samples;Min_cycle;Max_cycle;Signal;HPM_P1;HPM_P2
2022/08/06 00:02:20;;;;;;;2.45;1.10;;;;;;;12.32;96.69;102041.91;4990316;28;20197;-46
2022/08/06 00:04:47;;;;;;;2.65;1.00;;;;;;;12.34;96.94;102050.81;4990157;28;20216;-46
2022/08/06 00:07:12;;;;;;;3.42;1.15;;;;;;;12.35;97.01;102047.22;4989336;28;20269;-45
2022/08/06 00:09:38;;;;;;;2.47;1.00;;;;;;;12.26;96.90;102050.13;4983049;28;20265;-44
2022/08/06 00:12:05;;;;;;;1.55;0.80;;;;;;;12.31;96.99;102052.69;4971009;28;20198;-45
2022/08/06 00:14:31;;;;;;;1.23;0.70;;;;;;;12.30;96.77;102050.94;4970796;28;20222;-44
2022/08/06 00:16:58;;;;;;;2.33;1.00;;;;;;;12.19;96.90;102051.22;4972617;28;20670;-46
2022/08/06 00:19:24;;;;;;;2.25;0.90;;;;;;;12.16;97.17;102056.69;4974857;28;20258;-45
2022/08/06 00:21:50;;;;;;;1.85;0.90;;;;;;;12.26;97.51;102060.88;4974612;28;20281;-44
2022/08/06 00:24:16;;;;;;;3.38;0.93;;;;;;;11.99;97.20;102075.00;4974651;28;20174;-47
2022/08/06 00:26:41;;;;;;;1.35;0.90;;;;;;;12.01;97.44;102065.13;4974387;28;20225;-47
2022/08/06 00:29:08;;;;;;;1.80;0.93;;;;;;;12.21;97.69;102062.81;4957261;28;20181;-46
2022/08/06 00:31:34;;;;;;;3.53;1.00;;;;;;;12.10;97.23;102072.94;4974533;28;20194;-47
2022/08/06 00:34:01;;;;;;;2.00;0.82;;;;;;;12.14;97.47;102077.31;4974232;28;20264;-46
2022/08/06 00:36:28;;;;;;;3.47;0.90;;;;;;;12.07;97.35;102075.69;4974628;28;20296;-45
2022/08/06 00:38:53;;;;;;;1.95;0.75;;;;;;;12.11;97.45;102086.34;4974155;28;20244;-45
2022/08/06 00:41:21;;;;;;;2.75;0.98;;;;;;;12.15;97.55;102088.00;4974440;28;20170;-43
2022/08/06 00:43:47;;;;;;;1.85;0.75;;;;;;;12.13;97.27;102086.28;4974178;28;20182;-46
2022/08/06 00:46:12;;;;;;;1.75;1.27;;;;;;;12.20;97.29;102087.91;4974286;28;20167;-47
2022/08/06 00:48:38;;;;;;;0.88;0.70;;;;;;;12.22;97.03;102088.72;4972952;28;20158;-49
2022/08/06 00:51:04;;;;;;;1.58;0.75;;;;;;;12.20;96.98;102098.66;4973944;28;20163;-49
2022/08/06 00:53:29;;;;;;;1.92;0.70;;;;;;;12.25;96.88;102107.50;4973563;28;20277;-48
2022/08/06 00:55:55;;;;;;;1.80;0.80;;;;;;;12.25;96.57;102103.94;4973499;28;20229;-48
2022/08/06 00:58:21;;;;;;;5.43;0.80;;;;;;;12.15;96.28;102112.19;4974072;28;20272;-48
2022/08/06 01:00:46;;;;;;;1.20;0.80;;;;;;;12.13;96.26;102114.06;4973572;28;20181;-48
2022/08/06 01:03:16;;;;;;;1.63;0.90;;;;;;;12.13;96.33;102122.13;4973130;28;20209;-48
2022/08/06 01:05:44;;;;;;;1.48;0.80;;;;;;;12.11;96.43;102118.59;4973920;28;20263;-47
2022/08/06 01:08:10;;;;;;;1.55;1.10;;;;;;;12.16;96.37;102119.34;4973554;28;20656;-48
2022/08/06 01:10:36;;;;;;;1.90;1.00;;;;;;;12.06;96.52;102125.84;4988980;28;20648;-47
2022/08/06 01:13:02;;;;;;;1.80;0.95;;;;;;;11.97;96.82;102130.56;4993267;28;20248;-45
2022/08/06 01:15:28;;;;;;;3.97;1.05;;;;;;;11.73;96.91;102133.72;4993194;28;20640;-45
2022/08/06 01:18:08;;;;;;;1.65;0.80;;;;;;;11.86;97.63;102144.19;4993298;28;20186;-47
2022/08/06 01:20:41;;;;;;;3.30;1.00;;;;;;;11.86;97.86;102134.34;4992880;28;20637;-46
2022/08/06 01:23:32;;;;;;;2.60;0.90;;;;;;;11.83;97.73;102144.25;4993016;28;20272;-48
2022/08/06 01:26:06;;;;;;;2.35;1.20;;;;;;;11.81;98.06;102127.31;4992809;28;20228;-47
2022/08/06 01:28:37;;;;;;;2.55;1.20;;;;;;;11.75;98.53;102136.38;4992947;28;20161;-47
2022/08/06 01:31:08;;;;;;;2.70;1.30;;;;;;;11.71;98.84;102132.88;4992312;28;20169;-53
2022/08/06 01:33:38;;;;;;;2.33;1.13;;;;;;;11.79;99.20;102139.91;4991790;28;20248;-46
2022/08/06 01:36:09;;;;;;;2.05;1.27;;;;;;;11.45;99.67;102136.13;4992775;28;20232;-45
2022/08/06 01:38:39;;;;;;;2.20;1.13;;;;;;;11.59;100.00;102141.22;4992964;28;20189;-44
2022/08/06 01:41:09;;;;;;;1.60;1.23;;;;;;;11.68;100.00;102129.38;4992567;28;20593;-43
2022/08/06 01:43:37;;;;;;;2.05;1.35;;;;;;;11.57;100.00;102147.50;4992468;28;20202;-47
2022/08/06 01:46:03;;;;;;;3.75;1.90;;;;;;;11.60;100.00;102139.41;4989075;28;20181;-46
2022/08/06 01:48:32;;;;;;;1.50;1.30;;;;;;;11.67;100.00;102139.22;4985543;28;20174;-45
2022/08/06 01:51:02;;;;;;;5.50;1.45;;;;;;;11.62;100.00;102137.56;4989156;28;20529;-48
2022/08/06 01:53:36;;;;;;;2.85;1.27;;;;;;;11.64;100.00;102139.31;4972762;28;20661;-45
2022/08/06 01:56:04;;;;;;;3.70;1.30;;;;;;;11.54;100.00;102138.63;4973011;28;20155;-45
2022/08/06 01:58:38;;;;;;;1.13;1.00;;;;;;;11.55;100.00;102144.88;4986908;28;20273;-45
2022/08/06 02:01:10;;;;;;;1.27;1.17;;;;;;;11.67;100.00;102151.78;4981394;28;20178;-44
2022/08/06 02:03:43;;;;;;;4.63;1.40;;;;;;;11.62;100.00;102154.56;4972999;28;20221;-43
2022/08/06 02:06:11;;;;;;;4.20;1.50;;;;;;;11.52;100.00;102156.56;4971271;28;20178;-47
2022/08/06 02:08:38;;;;;;;3.85;1.15;;;;;;;11.39;100.00;102163.09;4972823;28;20188;-44
2022/08/06 02:11:07;;;;;;;5.63;1.42;;;;;;;11.47;100.00;102174.53;4972774;28;20209;-44
2022/08/06 02:13:35;;;;;;;3.85;1.17;;;;;;;11.45;100.00;102156.72;4972708;28;20177;-49
2022/08/06 02:16:03;;;;;;;1.73;1.20;;;;;;;11.44;100.00;102168.38;4972551;28;20186;-44
2022/08/06 02:18:45;;;;;;;2.13;1.00;;;;;;;11.26;100.00;102180.31;4972533;28;20283;-44
2022/08/06 02:21:17;;;;;;;1.15;1.00;;;;;;;11.32;100.00;102169.47;4972161;28;20201;-45
2022/08/06 02:23:44;;;;;;;3.72;1.02;;;;;;;11.46;100.00;102170.09;4972280;28;20171;-44
2022/08/06 02:26:11;;;;;;;3.03;1.40;;;;;;;11.40;100.00;102178.28;4972307;28;20205;-46
2022/08/06 02:28:38;;;;;;;6.43;1.60;;;;;;;11.30;100.00;102176.69;4972291;28;20162;-45
2022/08/06 02:31:04;;;;;;;2.55;1.45;;;;;;;11.31;100.00;102175.78;4972620;28;20178;-45
2022/08/06 02:33:30;;;;;;;3.17;1.40;;;;;;;11.32;100.00;102172.16;4972012;28;20201;-49
2022/08/06 02:36:10;;;;;;;3.13;1.42;;;;;;;11.36;100.00;102170.31;4972316;28;20177;-49
2022/08/06 02:38:48;;;;;;;3.45;1.20;;;;;;;11.26;100.00;102170.50;4971828;28;20281;-44
2022/08/06 02:41:38;;;;;;;4.50;1.33;;;;;;;11.32;100.00;102178.41;4972144;28;20174;-42
2022/08/06 02:44:16;;;;;;;3.85;1.45;;;;;;;11.19;100.00;102182.25;4972165;28;20158;-45
2022/08/06 02:46:49;;;;;;;2.58;1.20;;;;;;;11.28;100.00;102176.72;4972297;28;20174;-45
2022/08/06 02:49:25;;;;;;;2.15;1.42;;;;;;;11.25;100.00;102175.91;4972022;28;20527;-45
2022/08/06 02:52:03;;;;;;;4.47;1.50;;;;;;;11.34;100.00;102178.38;4972078;28;20206;-48
2022/08/06 02:54:37;;;;;;;2.15;1.05;;;;;;;11.39;100.00;102175.63;4970362;28;20600;-47
2022/08/06 02:57:06;;;;;;;2.53;1.00;;;;;;;11.36;100.00;102176.56;4971883;28;20166;-49
2022/08/06 02:59:42;;;;;;;1.15;0.90;;;;;;;11.38;100.00;102173.84;4971888;28;20173;-49
2022/08/06 03:02:10;;;;;;;2.80;1.23;;;;;;;11.35;100.00;102177.50;4971071;28;20205;-48
2022/08/06 03:04:40;;;;;;;3.88;1.13;;;;;;;11.25;100.00;102178.56;4971178;28;20241;-49
2022/08/06 03:07:08;;;;;;;4.82;1.08;;;;;;;11.23;100.00;102191.13;4971342;28;20209;-50
2022/08/06 03:09:35;;;;;;;2.65;0.90;;;;;;;11.25;100.00;102178.56;4976785;28;20931;-49
2022/08/06 03:12:01;;;;;;;1.75;1.20;;;;;;;11.30;100.00;102184.72;4990894;28;20237;-48
2022/08/06 03:14:28;;;;;;;1.58;1.25;;;;;;;11.25;100.00;102178.56;4990541;28;20225;-49
2022/08/06 03:16:55;;;;;;;3.50;0.80;;;;;;;11.27;100.00;102193.72;4990772;28;20215;-51
2022/08/06 03:19:22;;;;;;;1.45;1.00;;;;;;;11.37;100.00;102191.75;4990554;28;20185;-50
2022/08/06 03:21:49;;;;;;;2.00;1.02;;;;;;;11.33;100.00;102193.63;4990723;28;20205;-49
2022/08/06 03:24:16;;;;;;;3.28;1.00;;;;;;;11.38;100.00;102189.97;4990119;28;20174;-49
2022/08/06 03:26:42;;;;;;;2.70;0.80;;;;;;;11.23;100.00;102191.13;4990614;28;20185;-49
2022/08/06 03:29:09;;;;;;;3.65;1.27;;;;;;;11.33;100.00;102187.38;4990571;28;20184;-50
2022/08/06 03:31:35;;;;;;;3.42;0.95;;;;;;;11.44;100.00;102188.03;4990359;28;20727;-49
2022/08/06 03:34:01;;;;;;;6.53;0.93;;;;;;;11.30;100.00;102182.03;4989991;28;20205;-49
2022/08/06 03:36:27;;;;;;;5.35;1.35;;;;;;;11.41;100.00;102190.75;4990057;28;20185;-49
2022/08/06 03:38:57;;;;;;;3.53;0.90;;;;;;;11.28;100.00;102199.97;4990453;28;20189;-49
2022/08/06 03:41:25;;;;;;;2.42;0.70;;;;;;;11.41;100.00;102200.63;4990150;28;20245;-49
2022/08/06 03:43:51;;;;;;;6.13;0.80;;;;;;;11.36;100.00;102197.16;4989641;28;20173;-49
2022/08/06 03:46:24;;;;;;;1.90;0.70;;;;;;;11.23;100.00;102210.78;4988785;28;20534;-50
2022/08/06 03:48:52;;;;;;;2.45;0.65;;;;;;;11.23;100.00;102201.88;4985529;28;20174;-50
2022/08/06 03:51:21;;;;;;;3.92;1.08;;;;;;;11.19;100.00;102206.41;4971491;28;20272;-48
2022/08/06 03:53:48;;;;;;;2.03;0.80;;;;;;;11.29;100.00;102207.13;4984433;28;20250;-49
2022/08/06 03:56:20;;;;;;;2.20;1.00;;;;;;;11.31;100.00;102207.97;4977477;28;20188;-50
2022/08/06 03:58:49;;;;;;;3.95;1.17;;;;;;;11.31;100.00;102206.16;4978046;28;20209;-49
2022/08/06 04:01:25;;;;;;;1.95;0.80;;;;;;;11.28;99.95;102213.38;4982298;28;20181;-50
2022/08/06 04:03:52;;;;;;;4.18;1.05;;;;;;;11.32;100.00;102213.28;4973688;28;20561;-50
2022/08/06 04:06:20;;;;;;;2.65;1.08;;;;;;;11.30;99.75;102217.84;4974660;28;20313;-49
2022/08/06 04:08:46;;;;;;;1.38;0.85;;;;;;;11.23;99.73;102223.31;4974734;28;20178;-50
2022/08/06 04:11:13;;;;;;;4.30;0.82;;;;;;;11.33;99.78;102219.56;4993611;28;20647;-49
2022/08/06 04:13:40;;;;;;;3.33;0.90;;;;;;;11.33;99.73;102223.13;4992211;28;20308;-49
2022/08/06 04:16:06;;;;;;;3.85;0.85;;;;;;;11.35;99.62;102228.47;4993062;28;20166;-49
2022/08/06 04:18:37;;;;;;;3.50;0.90;;;;;;;11.30;99.69;102224.97;4993796;28;20338;-49
2022/08/06 04:21:07;;;;;;;1.30;0.70;;;;;;;11.41;99.96;102230.13;4993460;28;20618;-49
2022/08/06 04:23:33;;;;;;;1.95;0.80;;;;;;;11.43;99.90;102233.69;4993202;28;20320;-48
2022/08/06 04:26:02;;;;;;;3.28;1.10;;;;;;;11.44;100.00;102228.28;4993321;28;20252;-48
2022/08/06 04:28:29;;;;;;;4.53;0.98;;;;;;;11.45;99.99;102235.41;4993565;28;20157;-48
2022/08/06 04:30:58;;;;;;;1.95;0.95;;;;;;;11.54;100.00;102235.25;4993569;28;20177;-49
2022/08/06 04:33:25;;;;;;;5.30;1.27;;;;;;;11.39;100.00;102230.19;4993109;28;20287;-50
2022/08/06 04:35:51;;;;;;;2.90;0.80;;;;;;;11.48;100.00;102246.09;4993700;28;20625;-51
2022/08/06 04:38:20;;;;;;;3.25;1.05;;;;;;;11.43;100.00;102229.19;4985922;28;20205;-50
2022/08/06 04:40:46;;;;;;;1.50;0.82;;;;;;;11.43;100.00;102244.41;4993821;28;20231;-49
2022/08/06 04:43:12;;;;;;;4.28;1.10;;;;;;;11.57;100.00;102246.81;4992773;28;20311;-49
2022/08/06 04:45:40;;;;;;;3.05;1.10;;;;;;;11.60;100.00;102242.28;4993521;28;20211;-50
2022/08/06 04:48:08;;;;;;;3.75;1.15;;;;;;;11.57;100.00;102244.13;4993086;28;20228;-49
2022/08/06 04:50:35;;;;;;;3.00;0.98;;;;;;;11.68;100.00;102239.47;4993657;28;20178;-49
2022/08/06 04:53:09;;;;;;;3.42;1.10;;;;;;;11.83;100.00;102251.66;4992840;28;20243;-51
2022/08/06 04:55:35;;;;;;;3.33;0.82;;;;;;;12.01;99.89;102253.13;4991731;28;20637;-50
2022/08/06 04:58:03;;;;;;;1.95;0.98;;;;;;;12.14;99.36;102249.28;4993404;28;20186;-50
2022/08/06 05:00:30;;;;;;;3.05;1.15;;;;;;;12.30;98.66;102258.75;4992997;28;20208;-52
2022/08/06 05:02:55;;;;;;;3.03;1.02;;;;;;;12.36;97.82;102257.72;4992326;28;20265;-48
2022/08/06 05:05:22;;;;;;;1.08;0.70;;;;;;;12.56;97.41;102259.94;4992854;28;20584;-50
2022/08/06 05:07:54;;;;;;;3.80;0.98;;;;;;;12.72;96.67;102255.97;4993117;28;20180;-49
2022/08/06 05:10:27;;;;;;;1.80;0.75;;;;;;;12.85;96.21;102263.75;4978636;28;20182;-49
2022/08/06 05:12:56;;;;;;;3.53;0.90;;;;;;;12.86;95.01;102263.72;4973266;28;20703;-50
2022/08/06 05:15:36;;;;;;;3.17;0.98;;;;;;;13.10;94.85;102266.72;4973564;28;20163;-49
2022/08/06 05:18:08;;;;;;;2.10;0.80;;;;;;;13.31;93.92;102281.44;4973025;28;20587;-52
2022/08/06 05:20:37;;;;;;;3.22;0.88;;;;;;;13.39;93.33;102279.44;4973500;28;20252;-50
2022/08/06 05:23:17;;;;;;;2.75;0.98;;;;;;;13.29;93.01;102278.78;4976123;28;20225;-51
2022/08/06 05:25:43;;;;;;;1.65;0.75;;;;;;;13.53;92.63;102285.31;4977579;28;20260;-50
2022/08/06 05:28:09;;;;;;;2.20;0.60;;;;;;;13.51;91.88;102283.59;4983643;28;20272;-53
2022/08/06 05:30:42;;;;;;;2.42;1.15;;;;;;;13.65;90.86;102294.00;4992675;28;20276;-51
2022/08/06 05:33:08;;;;;;;5.25;1.50;;;;;;;13.84;90.57;102286.25;4992062;28;20200;-50
2022/08/06 05:35:34;;;;;;;2.10;0.68;;;;;;;13.79;89.91;102289.09;4992422;28;20174;-50
2022/08/06 05:38:00;;;;;;;3.20;0.80;;;;;;;13.87;89.39;102295.16;4992521;28;20501;-50
2022/08/06 05:40:33;;;;;;;3.55;0.95;;;;;;;13.85;88.91;102293.44;4990875;28;20189;-49
2022/08/06 05:43:00;;;;;;;2.28;0.60;;;;;;;13.98;88.93;102302.94;4992022;28;20664;-50
2022/08/06 05:45:26;;;;;;;3.05;0.80;;;;;;;14.22;88.60;102306.72;4992086;28;20166;-48
2022/08/06 05:47:54;;;;;;;4.72;0.70;;;;;;;14.26;87.81;102305.69;4992254;28;20181;-50
2022/08/06 05:50:26;;;;;;;4.65;0.90;;;;;;;14.47;87.31;102324.84;4992292;28;20374;-50
2022/08/06 05:53:01;;;;;;;2.85;0.70;;;;;;;14.44;86.84;102312.34;4992019;28;20220;-49
2022/08/06 05:55:48;;;;;;;2.08;0.60;;;;;;;14.33;87.13;102309.97;4992204;28;20177;-49
2022/08/06 05:58:24;;;;;;;2.58;0.63;;;;;;;14.56;86.26;102316.50;4990492;28;20737;-49
2022/08/06 06:00:51;;;;;;;4.00;0.80;;;;;;;15.06;85.24;102318.50;4990830;28;20256;-49
2022/08/06 06:03:19;;;;;;;2.63;0.63;;;;;;;15.44;83.76;102319.91;4990817;28;20231;-48
2022/08/06 06:05:45;;;;;;;3.22;0.80;;;;;;;15.40;82.19;102316.44;4991926;28;20203;-49
2022/08/06 06:08:10;;;;;;;3.40;0.80;;;;;;;15.48;83.08;102323.38;4991559;28;20168;-49
2022/08/06 06:10:39;;;;;;;4.35;0.60;;;;;;;15.69;81.62;102319.91;4990239;28;20185;-48
2022/08/06 06:13:07;;;;;;;4.20;0.57;;;;;;;16.14;79.91;102326.44;4991054;28;20499;-49
2022/08/06 06:15:44;;;;;;;3.10;0.70;;;;;;;16.41;78.57;102313.69;4990771;28;20185;-48
2022/08/06 06:18:12;;;;;;;2.83;0.60;;;;;;;16.27;79.32;102334.03;4991598;28;20330;-49
2022/08/06 06:20:40;;;;;;;4.22;0.68;;;;;;;16.63;78.31;102329.94;4991384;28;20232;-49
2022/08/06 06:23:11;;;;;;;3.25;0.80;;;;;;;16.66;76.50;102337.94;4990827;28;20236;-49
2022/08/06 06:25:46;;;;;;;3.58;0.60;;;;;;;16.61;76.61;102337.25;4991560;28;20182;-48
2022/08/06 06:28:14;;;;;;;0.90;0.35;;;;;;;16.62;75.90;102344.44;4991263;28;20185;-48
2022/08/06 06:30:54;;;;;;;3.50;0.90;;;;;;;16.86;75.63;102339.91;4991205;28;20704;-49
2022/08/06 06:33:35;;;;;;;6.15;0.77;;;;;;;17.22;74.41;102348.31;4990732;28;20268;-49
2022/08/06 06:36:07;;;;;;;5.95;0.70;;;;;;;16.94;74.38;102337.75;4991162;28;20188;-48
2022/08/06 06:38:44;;;;;;;5.10;0.80;;;;;;;17.01;73.92;102343.78;4991055;28;20300;-49
2022/08/06 06:41:31;;;;;;;2.50;0.60;;;;;;;17.15;73.14;102354.06;4991241;28;20189;-49
2022/08/06 06:44:23;;;;;;;3.53;0.77;;;;;;;17.38;71.43;102354.00;4990298;28;20205;-48
2022/08/06 06:47:04;;;;;;;5.72;1.10;;;;;;;17.30;71.64;102358.84;4990906;28;20209;-49
2022/08/06 06:49:56;;;;;;;1.67;0.60;;;;;;;17.64;71.05;102347.41;4990865;28;20184;-50
2022/08/06 06:52:26;;;;;;;2.20;1.10;;;;;;;17.78;70.80;102356.81;4990125;28;20320;-48
2022/08/06 06:55:08;;;;;;;1.73;1.10;;;;;;;18.12;69.35;102351.63;4990624;28;20232;-48
2022/08/06 06:57:38;;;;;;;2.47;0.57;;;;;;;18.27;68.81;102360.91;4990761;28;20193;-47
2022/08/06 07:00:05;;;;;;;1.52;0.75;;;;;;;17.71;71.04;102357.06;4990775;28;20188;-49
2022/08/06 07:02:35;;;;;;;3.10;0.90;;;;;;;17.60;69.58;102358.47;4990545;28;20216;-49
2022/08/06 07:05:03;;;;;;;3.83;0.70;;;;;;;17.67;70.01;102366.28;4990440;28;20211;-48
2022/08/06 07:07:32;;;;;;;0.65;0.50;;;;;;;18.52;69.47;102367.94;4989889;28;20592;-48
2022/08/06 07:10:00;;;;;;;2.30;0.63;;;;;;;19.02;67.96;102353.78;4980682;28;20178;-48
2022/08/06 07:12:28;;;;;;;3.33;0.90;;;;;;;19.03;66.26;102368.22;4971315;28;20230;-48
2022/08/06 07:14:55;;;;;;;2.97;0.80;;;;;;;18.70;64.99;102363.44;4971065;28;20673;-49
2022/08/06 07:17:23;;;;;;;3.67;0.80;;;;;;;19.04;65.62;102373.56;4971123;28;20167;-48
2022/08/06 07:19:51;;;;;;;3.10;0.93;;;;;;;18.37;65.60;102369.53;4971316;28;20661;-48
2022/08/06 07:22:19;;;;;;;2.88;0.85;;;;;;;18.50;66.46;102377.97;4971132;28;20272;-47
2022/08/06 07:24:45;;;;;;;3.38;1.02;;;;;;;19.04;65.61;102379.00;4970637;28;20244;-47
2022/08/06 07:27:13;;;;;;;2.33;0.85;;;;;;;19.28;63.91;102376.03;4970727;28;20181;-47
2022/08/06 07:29:40;;;;;;;4.22;1.10;;;;;;;18.88;64.46;102378.00;4970747;28;20720;-47
2022/08/06 07:32:08;;;;;;;4.35;1.10;;;;;;;19.02;64.34;102374.59;4971067;28;20217;-47
2022/08/06 07:34:34;;;;;;;2.85;1.10;;;;;;;19.14;64.71;102376.72;4970531;28;20175;-48
2022/08/06 07:37:02;;;;;;;3.15;0.90;;;;;;;18.50;65.22;102377.97;4970965;28;20173;-49
2022/08/06 07:39:32;;;;;;;3.25;1.05;;;;;;;18.38;64.85;102386.66;4970888;28;20206;-47
2022/08/06 07:42:01;;;;;;;4.88;1.30;;;;;;;18.97;63.63;102385.69;4970740;28;20574;-47
2022/08/06 07:44:29;;;;;;;2.10;1.00;;;;;;;19.09;61.83;102385.09;4969237;28;20186;-49
2022/08/06 07:46:58;;;;;;;2.38;1.33;;;;;;;19.52;61.95;102376.63;4970570;28;20233;-48
2022/08/06 07:49:32;;;;;;;3.25;1.30;;;;;;;19.86;59.82;102383.06;4970067;28;20178;-47
2022/08/06 07:51:58;;;;;;;3.38;1.10;;;;;;;20.01;59.50;102384.09;4971746;28;20240;-47
2022/08/06 07:54:30;;;;;;;7.32;1.13;;;;;;;20.25;58.81;102374.59;4976400;28;20194;-47
2022/08/06 07:56:57;;;;;;;5.40;1.50;;;;;;;20.15;59.63;102386.94;4970318;28;20180;-49
2022/08/06 07:59:24;;;;;;;3.25;1.13;;;;;;;19.83;60.37;102394.09;4971067;28;20301;-49
2022/08/06 08:01:50;;;;;;;4.47;1.23;;;;;;;19.98;60.05;102398.72;4970723;28;20284;-48
2022/08/06 08:07:03;;;;;;;4.07;1.20;;;;;;;18.26;60.74;102399.84;4970975;28;20714;-47
2022/08/06 08:09:30;;;;;;;2.47;1.42;;;;;;;18.02;63.59;102406.41;4976204;28;20316;-48
2022/08/06 08:11:56;;;;;;;5.57;1.40;;;;;;;18.10;63.55;102405.09;4990374;28;20284;-49
2022/08/06 08:14:22;;;;;;;2.88;1.50;;;;;;;18.74;63.05;102401.25;4989550;28;20600;-48
2022/08/06 08:16:49;;;;;;;2.75;1.45;;;;;;;19.48;58.87;102394.03;4990141;28;20169;-49
2022/08/06 08:19:32;;;;;;;4.88;1.50;;;;;;;19.80;59.75;102391.53;4990105;28;20209;-47
2022/08/06 08:22:19;;;;;;;3.67;1.30;;;;;;;20.16;58.41;102394.16;4990254;28;20680;-49
2022/08/06 08:24:47;;;;;;;3.85;1.50;;;;;;;20.49;58.21;102394.16;4989722;28;20174;-48
2022/08/06 08:27:14;;;;;;;6.05;1.90;;;;;;;19.46;57.90;102405.00;4989782;28;20263;-48
2022/08/06 08:29:41;;;;;;;5.05;1.70;;;;;;;19.29;60.00;102405.84;4990341;28;20180;-48
2022/08/06 08:32:08;;;;;;;3.58;1.73;;;;;;;19.13;59.53;102407.53;4989616;28;20228;-47
2022/08/06 08:34:34;;;;;;;1.83;1.52;;;;;;;19.11;59.90;102404.94;4989975;28;20170;-47
2022/08/06 08:37:01;;;;;;;4.40;1.95;;;;;;;17.93;61.19;102402.25;4989948;28;20637;-48
2022/08/06 08:39:27;;;;;;;5.63;2.00;;;;;;;17.84;61.78;102413.47;4993600;28;20208;-47
2022/08/06 08:42:08;;;;;;;2.90;1.80;;;;;;;17.61;64.26;102412.63;4993826;28;20197;-49
2022/08/06 08:44:34;;;;;;;4.88;2.00;;;;;;;17.86;63.61;102412.50;4992935;28;20227;-48
2022/08/06 08:47:01;;;;;;;5.38;1.98;;;;;;;19.07;60.87;102413.31;4993508;28;20177;-47
2022/08/06 08:49:51;;;;;;;3.53;1.90;;;;;;;19.87;58.40;102409.28;4992973;28;20165;-48
2022/08/06 08:52:23;;;;;;;4.65;1.95;;;;;;;18.97;59.98;102417.41;4993425;28;20220;-47
2022/08/06 08:54:51;;;;;;;5.72;2.00;;;;;;;18.81;61.05;102411.84;4992774;28;20166;-48
2022/08/06 08:57:18;;;;;;;2.75;2.08;;;;;;;19.35;59.41;102415.53;4993005;28;20644;-43
2022/08/06 08:59:43;;;;;;;4.07;2.20;;;;;;;19.31;59.82;102412.09;4993340;28;20169;-44
2022/08/06 09:02:12;;;;;;;4.53;2.13;;;;;;;19.03;58.66;102415.28;4993166;28;20746;-43
2022/08/06 09:04:38;;;;;;;5.03;2.50;;;;;;;18.90;59.71;102425.84;4993005;28;20177;-42
2022/08/06 09:07:05;;;;;;;3.50;2.20;;;;;;;19.54;58.08;102419.06;4992889;28;20174;-42
2022/08/06 09:09:34;;;;;;;4.70;2.40;;;;;;;20.29;56.73;102419.75;4992809;28;20182;-42
2022/08/06 09:12:01;;;;;;;3.20;2.50;;;;;;;20.67;57.11;102415.94;4993078;28;20526;-43
2022/08/06 09:14:26;;;;;;;3.50;2.10;;;;;;;20.16;56.48;102421.38;4992846;28;20268;-43
2022/08/06 09:16:52;;;;;;;4.20;2.17;;;;;;;20.64;55.98;102419.72;4992793;28;20197;-43
2022/08/06 09:19:18;;;;;;;4.32;2.20;;;;;;;20.08;57.01;102423.63;4992937;28;20221;-43
2022/08/06 09:21:44;;;;;;;2.95;2.15;;;;;;;20.26;56.69;102411.75;4992917;28;20197;-42
2022/08/06 09:24:10;;;;;;;3.35;2.50;;;;;;;20.45;55.63;102419.81;4991679;28;20527;-44
2022/08/06 09:26:36;;;;;;;8.10;2.90;;;;;;;20.25;54.75;102411.84;4992599;28;20185;-42
2022/08/06 09:29:19;;;;;;;4.57;2.95;;;;;;;20.86;54.54;102411.22;4992423;28;20469;-43
2022/08/06 09:31:44;;;;;;;6.32;2.88;;;;;;;20.95;52.15;102412.53;4991631;28;20208;-41
2022/08/06 09:34:10;;;;;;;4.07;3.55;;;;;;;21.13;53.14;102414.19;4992075;28;20626;-43
2022/08/06 09:36:43;;;;;;;5.60;3.20;;;;;;;21.13;51.74;102413.31;4992398;28;20301;-41
2022/08/06 09:39:09;;;;;;;4.38;3.17;;;;;;;21.52;51.52;102415.59;4992482;28;20259;-42
2022/08/06 09:41:45;;;;;;;4.47;3.38;;;;;;;21.44;51.78;102422.47;4992410;28;20216;-42
2022/08/06 09:44:11;;;;;;;3.53;3.10;;;;;;;21.77;50.50;102415.00;4992133;28;20169;-43
2022/08/06 09:46:43;;;;;;;3.50;3.20;;;;;;;21.56;50.40;102421.75;4992163;28;20675;-43
2022/08/06 09:49:11;;;;;;;4.93;2.88;;;;;;;21.05;50.32;102429.22;4992396;28;20192;-44
2022/08/06 09:51:37;;;;;;;5.32;3.45;;;;;;;21.47;51.38;102428.63;4992697;28;20276;-46
2022/08/06 09:54:05;;;;;;;4.03;2.90;;;;;;;21.45;52.00;102427.84;4991768;28;20179;-47
2022/08/06 09:56:31;;;;;;;4.90;2.80;;;;;;;21.28;48.00;102427.91;4992744;28;20219;-46
2022/08/06 09:59:01;;;;;;;3.83;2.83;;;;;;;21.26;46.71;102424.41;4990783;28;20291;-46
2022/08/06 10:01:27;;;;;;;3.38;2.55;;;;;;;21.21;46.09;102430.13;4991837;28;20308;-48
2022/08/06 10:03:55;;;;;;;4.72;3.10;;;;;;;20.67;47.32;102430.41;4992139;28;20169;-47
2022/08/06 10:06:21;;;;;;;3.35;3.05;;;;;;;20.32;48.14;102440.47;4992770;28;20173;-46
2022/08/06 10:08:48;;;;;;;3.53;3.22;;;;;;;20.92;48.02;102429.91;4992239;28;20521;-45
2022/08/06 10:11:14;;;;;;;4.60;3.25;;;;;;;20.99;48.13;102434.06;4973264;28;20584;-49
2022/08/06 10:13:47;;;;;;;4.70;3.33;;;;;;;21.19;48.13;102438.38;4972831;28;20236;-47
2022/08/06 10:16:18;;;;;;;5.68;3.38;;;;;;;21.60;47.48;102436.94;4973000;28;20165;-46
2022/08/06 10:18:49;;;;;;;5.65;3.25;;;;;;;21.40;46.46;102430.78;4971709;28;20205;-48
2022/08/06 10:21:22;;;;;;;4.55;3.25;;;;;;;21.71;47.88;102437.22;4972933;28;20189;-46
2022/08/06 10:23:50;;;;;;;6.45;3.67;;;;;;;21.59;47.63;102432.47;4972749;28;20163;-48
2022/08/06 10:26:18;;;;;;;4.07;3.75;;;;;;;20.98;49.28;102428.69;4972913;28;20670;-48
2022/08/06 10:28:46;;;;;;;4.35;3.20;;;;;;;21.70;49.07;102421.78;4972743;28;20542;-48
2022/08/06 10:31:15;;;;;;;4.03;3.63;;;;;;;20.95;47.71;102440.66;4971574;28;20173;-47
2022/08/06 10:33:57;;;;;;;3.92;3.50;;;;;;;21.24;46.80;102440.84;4972392;28;20286;-46
2022/08/06 10:36:30;;;;;;;4.57;3.30;;;;;;;21.62;46.44;102432.28;4973020;28;20169;-46
2022/08/06 10:38:56;;;;;;;5.15;3.50;;;;;;;20.37;48.42;102435.66;4971176;28;20209;-47
2022/08/06 10:41:22;;;;;;;4.75;3.65;;;;;;;20.96;48.74;102436.94;4972568;28;20249;-46
2022/08/06 10:43:49;;;;;;;5.22;3.22;;;;;;;21.16;47.81;102445.84;4972276;28;20189;-47
2022/08/06 10:46:15;;;;;;;4.72;3.70;;;;;;;20.58;49.61;102439.09;4972642;28;20193;-47
2022/08/06 10:48:44;;;;;;;7.78;3.45;;;;;;;20.96;49.26;102438.81;4972628;28;20196;-47
2022/08/06 10:51:11;;;;;;;5.88;3.30;;;;;;;20.31;50.18;102439.63;4972429;28;20166;-47
2022/08/06 10:53:40;;;;;;;7.43;3.70;;;;;;;20.45;53.10;102441.56;4972213;28;20665;-46
2022/08/06 10:56:08;;;;;;;7.32;3.72;;;;;;;20.03;54.49;102451.06;4972217;28;20219;-49
2022/08/06 10:58:35;;;;;;;4.85;4.20;;;;;;;19.95;55.82;102451.47;4972122;28;20582;-47
2022/08/06 11:01:21;;;;;;;6.32;3.60;;;;;;;19.50;56.81;102446.50;4970648;28;20589;-49
2022/08/06 11:04:06;;;;;;;5.25;3.95;;;;;;;19.03;57.56;102455.16;4971979;28;20165;-47
2022/08/06 11:06:49;;;;;;;4.93;3.90;;;;;;;18.72;57.86;102457.44;4972039;28;20182;-45
2022/08/06 11:09:52;;;;;;;6.40;4.00;;;;;;;18.80;57.64;102450.81;4976417;28;20707;-46
2022/08/06 11:12:40;;;;;;;6.43;4.00;;;;;;;18.66;59.09;102457.72;4991474;28;20680;-45
2022/08/06 11:15:07;;;;;;;5.88;4.07;;;;;;;19.03;58.80;102455.16;4987504;28;20645;-47
2022/08/06 11:17:53;;;;;;;6.55;4.18;;;;;;;18.88;59.31;102457.63;4991624;28;20641;-47
2022/08/06 11:20:36;;;;;;;6.47;3.95;;;;;;;18.62;59.21;102461.53;4991350;28;20568;-48
2022/08/06 11:23:10;;;;;;;6.78;4.00;;;;;;;18.77;58.77;102457.22;4990997;28;20280;-46
2022/08/06 11:25:40;;;;;;;4.10;3.72;;;;;;;19.09;58.57;102450.31;4990959;28;20183;-47
2022/08/06 11:28:11;;;;;;;7.07;4.05;;;;;;;19.80;56.86;102443.22;4991399;28;20181;-45
2022/08/06 11:30:45;;;;;;;4.70;3.92;;;;;;;20.42;56.50;102425.38;4991243;28;20260;-46
2022/08/06 11:33:20;;;;;;;7.63;4.35;;;;;;;19.93;55.95;102447.06;4990917;28;20209;-47
2022/08/06 11:35:48;;;;;;;4.38;3.90;;;;;;;19.73;55.74;102440.81;4990931;28;20165;-48
2022/08/06 11:38:35;;;;;;;5.25;3.72;;;;;;;20.30;56.21;102436.97;4990265;28;20665;-47
2022/08/06 11:41:15;;;;;;;6.28;3.97;;;;;;;19.97;55.73;102432.34;4991456;28;20286;-46